Time;durP1;ratioP1;P1;durP2;ratioP2;P2;SDS_P1;SDS_P2;PMS_P1;PMS_P2;Temp;Humidity;BMP_temperature;BMP_pressure;BME280_temperature;BME280_humidity;BME280_pressure;Samples;Min_cycle;Max_cycle;Signal;HPM_P1;HPM_P2
2022/12/31 00:01:52;;;;;;;3.55;3.03;;;12.20;99.90;;;;;;5001038;28;89919;-34
2022/12/31 00:04:18;;;;;;;4.22;3.47;;;12.20;99.90;;;;;;5001406;28;89816;-34
2022/12/31 00:06:44;;;;;;;6.05;3.53;;;12.10;99.90;;;;;;5001552;28;89821;-34
2022/12/31 00:09:10;;;;;;;4.25;3.63;;;12.10;99.90;;;;;;5000742;28;90173;-34
2022/12/31 00:11:36;;;;;;;4.07;3.67;;;12.10;99.90;;;;;;5000649;28;89943;-35
2022/12/31 00:14:02;;;;;;;9.30;4.70;;;12.00;99.90;;;;;;5000629;28;90174;-35
2022/12/31 00:16:32;;;;;;;5.25;3.92;;;12.00;99.90;;;;;;5000108;28;88894;-34
2022/12/31 00:18:59;;;;;;;5.18;4.07;;;12.00;99.90;;;;;;5000793;28;90062;-36
2022/12/31 00:21:26;;;;;;;4.68;4.13;;;12.00;99.90;;;;;;5000230;28;89521;-35
2022/12/31 00:23:52;;;;;;;6.00;4.32;;;11.90;99.90;;;;;;5000202;28;89773;-36
2022/12/31 00:26:20;;;;;;;6.05;5.03;;;11.90;99.90;;;;;;5000646;28;89294;-34
2022/12/31 00:28:47;;;;;;;4.57;4.18;;;11.90;99.90;;;;;;5000721;28;90152;-34
2022/12/31 00:31:15;;;;;;;6.05;5.22;;;11.80;99.90;;;;;;5000970;28;89776;-34
2022/12/31 00:33:42;;;;;;;6.45;4.40;;;11.70;99.90;;;;;;5000464;28;89261;-34
2022/12/31 00:36:12;;;;;;;5.28;4.43;;;11.80;99.90;;;;;;5000268;28;89033;-35
2022/12/31 00:38:38;;;;;;;4.63;4.07;;;11.90;99.90;;;;;;4999985;28;89749;-33
2022/12/31 00:41:05;;;;;;;11.82;3.78;;;11.90;99.90;;;;;;5000273;28;90290;-36
2022/12/31 00:43:31;;;;;;;5.72;5.15;;;11.90;99.90;;;;;;5000037;28;90991;-33
2022/12/31 00:45:57;;;;;;;11.48;4.05;;;11.80;99.90;;;;;;5007698;28;88151;-33
2022/12/31 00:48:23;;;;;;;5.40;3.75;;;11.80;99.90;;;;;;5013607;28;90397;-34
2022/12/31 00:50:48;;;;;;;6.50;4.75;;;11.80;99.90;;;;;;5013551;28;90515;-34
2022/12/31 00:53:15;;;;;;;9.13;4.65;;;11.70;99.90;;;;;;5012477;28;88433;-33
2022/12/31 00:55:40;;;;;;;6.88;4.53;;;11.80;99.90;;;;;;5012760;28;87887;-35
2022/12/31 00:58:06;;;;;;;6.55;4.30;;;11.80;99.90;;;;;;5013320;28;90416;-33
2022/12/31 01:00:32;;;;;;;5.43;4.20;;;11.80;99.90;;;;;;5013280;28;89320;-34
2022/12/31 01:02:57;;;;;;;7.93;4.50;;;11.80;99.90;;;;;;5012985;28;89369;-33
2022/12/31 01:05:23;;;;;;;12.18;3.78;;;11.80;99.90;;;;;;5012746;28;89008;-33
2022/12/31 01:07:48;;;;;;;5.43;3.65;;;11.80;99.90;;;;;;5012584;28;90525;-33
2022/12/31 01:11:17;;;;;;;6.00;3.90;;;11.80;99.90;;;;;;5012648;28;89577;-33
2022/12/31 01:12:59;;;;;;;6.50;3.75;;;11.90;99.90;;;;;;5012229;28;90045;-33
2022/12/31 01:15:25;;;;;;;6.25;4.07;;;11.90;99.90;;;;;;5011104;28;88425;-35
2022/12/31 01:17:51;;;;;;;5.82;3.67;;;11.80;99.90;;;;;;5000409;28;90206;-35
2022/12/31 01:20:17;;;;;;;4.90;3.88;;;11.80;99.90;;;;;;4999724;28;89336;-34
2022/12/31 01:22:42;;;;;;;6.93;4.63;;;11.80;99.90;;;;;;5000094;28;89691;-34
2022/12/31 01:25:08;;;;;;;4.13;3.83;;;11.80;99.90;;;;;;5000530;28;88631;-35
2022/12/31 01:27:33;;;;;;;6.28;4.18;;;11.70;99.90;;;;;;4999767;28;90090;-35
2022/12/31 01:29:59;;;;;;;12.80;4.65;;;11.80;99.90;;;;;;4981232;28;90410;-35
2022/12/31 01:32:25;;;;;;;4.53;3.70;;;11.70;99.90;;;;;;4999815;28;92958;-36
2022/12/31 01:34:50;;;;;;;6.03;4.15;;;11.70;99.90;;;;;;4998787;28;88542;-36
2022/12/31 01:37:16;;;;;;;4.93;3.70;;;11.80;99.90;;;;;;4999244;28;91717;-36
2022/12/31 01:39:41;;;;;;;5.70;4.53;;;11.80;99.90;;;;;;4998984;28;89586;-34
2022/12/31 01:42:10;;;;;;;6.07;4.80;;;11.80;99.90;;;;;;4999618;28;89707;-35
2022/12/31 01:44:39;;;;;;;5.22;4.03;;;11.80;99.90;;;;;;5004891;28;88594;-35
2022/12/31 01:47:13;;;;;;;4.72;3.80;;;11.80;99.90;;;;;;4999429;28;89312;-33
2022/12/31 01:49:44;;;;;;;7.15;4.45;;;11.80;99.90;;;;;;4999093;28;89844;-36
2022/12/31 01:52:26;;;;;;;4.03;3.60;;;11.80;99.90;;;;;;4998992;28;89317;-34
2022/12/31 01:55:02;;;;;;;6.65;3.53;;;11.80;99.90;;;;;;4998934;28;89664;-35
2022/12/31 01:57:28;;;;;;;4.82;4.03;;;11.80;99.90;;;;;;4998600;28;90211;-33
2022/12/31 01:59:55;;;;;;;3.97;3.58;;;11.70;99.90;;;;;;4999355;28;90341;-33
2022/12/31 02:02:21;;;;;;;5.53;3.55;;;11.70;99.90;;;;;;4999232;28;89126;-34
2022/12/31 02:04:49;;;;;;;5.35;3.22;;;11.70;99.90;;;;;;4999561;28;89061;-34
2022/12/31 02:07:15;;;;;;;4.65;3.20;;;11.80;99.90;;;;;;4998814;28;90409;-34
2022/12/31 02:09:41;;;;;;;4.20;3.28;;;11.70;99.90;;;;;;4998761;28;91453;-35
2022/12/31 02:12:08;;;;;;;3.28;2.97;;;11.70;99.90;;;;;;4999024;28;88753;-33
2022/12/31 02:14:41;;;;;;;4.13;3.35;;;11.70;99.90;;;;;;4999938;28;88668;-34
2022/12/31 02:17:25;;;;;;;14.50;4.13;;;11.70;99.90;;;;;;4998414;28;90588;-33
2022/12/31 02:20:19;;;;;;;7.63;3.83;;;11.70;99.90;;;;;;4999644;28;91349;-34
2022/12/31 02:23:21;;;;;;;3.53;3.28;;;11.70;99.90;;;;;;4998287;28;90240;-34
2022/12/31 02:26:09;;;;;;;4.47;3.67;;;11.60;99.90;;;;;;4999175;28;87686;-33
2022/12/31 02:28:37;;;;;;;4.07;3.47;;;11.70;99.90;;;;;;4998655;28;90015;-34
2022/12/31 02:31:11;;;;;;;2.80;2.60;;;11.60;99.90;;;;;;4999190;28;89872;-33
2022/12/31 02:34:05;;;;;;;2.72;2.53;;;11.50;99.90;;;;;;4980252;28;90696;-34
2022/12/31 02:36:41;;;;;;;3.00;2.33;;;11.60;99.90;;;;;;4992627;28;88254;-35
2022/12/31 02:39:09;;;;;;;3.50;3.05;;;11.60;99.90;;;;;;5004393;28;90174;-34
2022/12/31 02:41:50;;;;;;;2.13;1.90;;;11.60;99.90;;;;;;5011470;28;89587;-34
2022/12/31 02:44:34;;;;;;;2.40;2.20;;;11.50;99.90;;;;;;4998513;28;89780;-35
2022/12/31 02:47:08;;;;;;;1.90;1.80;;;11.50;99.90;;;;;;5001404;28;90488;-35
2022/12/31 02:49:52;;;;;;;3.38;2.05;;;11.50;99.90;;;;;;5001935;28;90176;-35
2022/12/31 02:52:35;;;;;;;3.63;2.10;;;11.50;99.90;;;;;;5002208;28;89562;-33
2022/12/31 02:55:15;;;;;;;3.33;1.85;;;11.40;99.90;;;;;;5014850;28;89462;-33
2022/12/31 02:57:51;;;;;;;3.00;1.67;;;11.40;99.90;;;;;;5015467;28;88815;-34
2022/12/31 03:03:04;;;;;;;1.60;1.33;;;11.30;99.90;;;;;;5015556;28;89839;-33
2022/12/31 03:05:35;;;;;;;1.73;0.93;;;11.30;99.90;;;;;;5015168;28;89074;-33
2022/12/31 03:08:01;;;;;;;6.32;1.33;;;11.30;99.90;;;;;;5016102;28;87972;-34
2022/12/31 03:10:26;;;;;;;1.33;1.23;;;11.20;99.90;;;;;;5014352;28;90120;-34
2022/12/31 03:12:52;;;;;;;1.38;1.17;;;11.20;99.90;;;;;;5014853;28;89517;-36
2022/12/31 03:15:25;;;;;;;1.40;1.30;;;11.20;99.90;;;;;;5015019;28;90606;-33
2022/12/31 03:18:14;;;;;;;1.30;1.20;;;11.20;99.90;;;;;;5014865;28;88907;-33
2022/12/31 03:23:39;;;;;;;1.63;1.50;;;11.10;99.90;;;;;;5014333;28;89087;-33
2022/12/31 03:26:09;;;;;;;2.30;1.05;;;11.10;99.90;;;;;;5013142;28;89169;-34
2022/12/31 03:28:35;;;;;;;2.78;1.73;;;11.10;99.90;;;;;;5015431;28;88763;-33
2022/12/31 03:31:02;;;;;;;1.10;1.00;;;11.10;99.90;;;;;;5007691;28;90683;-33
2022/12/31 03:33:39;;;;;;;1.40;1.10;;;11.10;99.90;;;;;;5001636;28;90321;-34
2022/12/31 03:36:08;;;;;;;3.28;1.60;;;11.10;99.90;;;;;;5000559;28;88588;-33
2022/12/31 03:38:34;;;;;;;3.83;1.95;;;11.10;99.90;;;;;;5000809;28;89981;-35
2022/12/31 03:41:00;;;;;;;1.73;1.17;;;11.00;99.90;;;;;;5000953;28;90422;-35
2022/12/31 03:43:25;;;;;;;2.78;1.25;;;11.00;99.90;;;;;;5001045;28;89838;-35
2022/12/31 03:45:52;;;;;;;2.58;1.45;;;11.00;99.90;;;;;;5001996;28;89665;-32
2022/12/31 03:48:19;;;;;;;1.02;1.02;;;11.00;99.90;;;;;;5001133;28;89069;-34
2022/12/31 03:50:45;;;;;;;3.50;2.17;;;11.00;99.90;;;;;;5000525;28;89654;-33
2022/12/31 03:53:11;;;;;;;4.45;1.80;;;10.90;99.90;;;;;;5001517;28;89821;-36
2022/12/31 03:55:36;;;;;;;3.53;2.38;;;11.00;99.90;;;;;;5000570;28;89144;-35
2022/12/31 03:58:02;;;;;;;2.20;1.83;;;11.00;99.90;;;;;;5000489;28;87936;-33
2022/12/31 04:00:28;;;;;;;2.67;2.22;;;11.00;99.90;;;;;;5000632;28;88858;-34
2022/12/31 04:02:54;;;;;;;4.38;3.13;;;11.00;99.90;;;;;;5000448;28;89585;-36
2022/12/31 04:05:21;;;;;;;3.08;2.47;;;11.00;99.90;;;;;;5001061;28;90212;-35
2022/12/31 04:07:47;;;;;;;5.93;3.05;;;11.00;99.90;;;;;;5001233;28;89803;-33
2022/12/31 04:10:14;;;;;;;4.68;3.53;;;11.00;99.90;;;;;;5001110;28;89914;-36
2022/12/31 04:12:40;;;;;;;2.90;2.50;;;11.00;99.90;;;;;;4983036;28;89887;-34
2022/12/31 04:15:07;;;;;;;3.47;3.17;;;11.00;99.90;;;;;;5000808;28;89535;-35
2022/12/31 04:17:33;;;;;;;4.53;3.00;;;11.00;99.90;;;;;;5000752;28;90096;-36
2022/12/31 04:19:59;;;;;;;3.55;2.83;;;11.00;99.90;;;;;;5001768;28;90248;-32
2022/12/31 04:22:24;;;;;;;4.00;3.05;;;11.00;99.90;;;;;;5002829;28;89457;-34
2022/12/31 04:24:50;;;;;;;4.85;3.22;;;11.10;99.90;;;;;;5013173;28;89346;-33
2022/12/31 04:27:16;;;;;;;5.38;3.03;;;11.10;99.90;;;;;;5013243;28;89168;-33
2022/12/31 04:29:41;;;;;;;3.15;2.42;;;11.10;99.90;;;;;;5012972;28;90226;-34
2022/12/31 04:32:08;;;;;;;3.30;2.97;;;11.10;99.90;;;;;;4995607;28;89913;-32
2022/12/31 04:34:34;;;;;;;3.00;2.67;;;11.10;99.90;;;;;;5013210;28;89012;-33
2022/12/31 04:37:00;;;;;;;4.50;2.75;;;11.10;99.90;;;;;;5013616;28;87746;-34
2022/12/31 04:39:26;;;;;;;8.57;2.97;;;11.20;99.90;;;;;;5005541;28;90199;-32
2022/12/31 04:41:53;;;;;;;2.78;2.53;;;11.20;99.90;;;;;;5013595;28;89763;-33
2022/12/31 04:44:19;;;;;;;4.70;2.90;;;11.20;99.90;;;;;;5013555;28;89266;-33
2022/12/31 04:46:44;;;;;;;3.60;2.20;;;11.10;99.90;;;;;;5006762;28;87800;-36
2022/12/31 04:49:10;;;;;;;3.08;2.33;;;11.10;99.90;;;;;;5003496;28;90064;-34
2022/12/31 04:51:36;;;;;;;2.97;2.60;;;11.10;99.90;;;;;;4999204;28;91828;-36
2022/12/31 04:54:02;;;;;;;2.40;2.20;;;11.10;99.90;;;;;;5011167;28;90168;-33
2022/12/31 04:56:28;;;;;;;2.67;1.65;;;11.10;99.90;;;;;;5013934;28;87699;-36
2022/12/31 04:58:55;;;;;;;4.63;1.95;;;11.10;99.90;;;;;;5013279;28;90181;-34
2022/12/31 05:01:21;;;;;;;2.58;2.03;;;11.10;99.90;;;;;;5012611;28;88984;-33
2022/12/31 05:03:47;;;;;;;3.17;2.08;;;11.10;99.90;;;;;;5012602;28;89405;-33
2022/12/31 05:06:16;;;;;;;3.50;2.13;;;11.10;99.90;;;;;;5012955;28;88146;-35
2022/12/31 05:08:42;;;;;;;6.03;2.08;;;11.00;99.90;;;;;;5011574;28;89247;-34
2022/12/31 05:11:08;;;;;;;2.10;1.90;;;11.00;99.90;;;;;;5012423;28;89032;-35
2022/12/31 05:13:33;;;;;;;6.85;1.60;;;11.00;99.90;;;;;;5013385;28;89164;-34
2022/12/31 05:16:00;;;;;;;2.92;1.80;;;11.00;99.90;;;;;;5013989;28;88049;-32
2022/12/31 05:18:26;;;;;;;5.07;2.15;;;10.90;99.90;;;;;;5012933;28;91039;-33
2022/12/31 05:20:52;;;;;;;5.85;1.58;;;11.00;99.90;;;;;;5011798;28;89192;-33
2022/12/31 05:23:18;;;;;;;1.92;1.67;;;11.00;99.90;;;;;;5013275;28;89675;-32
2022/12/31 05:25:46;;;;;;;3.25;1.70;;;10.90;99.90;;;;;;5013160;28;89225;-33
2022/12/31 05:28:15;;;;;;;3.28;1.67;;;10.90;99.90;;;;;;5014097;28;90367;-34
2022/12/31 05:30:41;;;;;;;4.75;1.65;;;10.90;99.90;;;;;;5013325;28;89797;-34
2022/12/31 05:33:07;;;;;;;2.40;2.13;;;10.90;99.90;;;;;;5013029;28;88454;-32
2022/12/31 05:35:33;;;;;;;3.92;1.60;;;10.90;99.90;;;;;;5013217;28;88406;-35
2022/12/31 05:37:59;;;;;;;2.50;2.30;;;10.90;99.90;;;;;;5012883;28;89369;-33
2022/12/31 05:40:25;;;;;;;3.70;2.25;;;10.90;99.90;;;;;;5012882;28;90634;-34
2022/12/31 05:42:51;;;;;;;3.15;2.20;;;10.80;99.90;;;;;;5013014;28;90310;-34
2022/12/31 05:45:17;;;;;;;3.08;1.80;;;10.90;99.90;;;;;;5013303;28;87592;-35
2022/12/31 05:47:43;;;;;;;2.40;1.90;;;10.90;99.90;;;;;;5012983;28;88364;-33
2022/12/31 05:50:11;;;;;;;4.00;3.08;;;10.90;99.90;;;;;;5012522;28;88708;-33
2022/12/31 05:52:37;;;;;;;5.18;3.05;;;11.00;99.90;;;;;;4993373;28;89547;-35
2022/12/31 05:55:04;;;;;;;3.22;2.92;;;10.90;99.90;;;;;;5011067;28;88614;-34
2022/12/31 05:57:29;;;;;;;3.25;2.35;;;10.90;99.90;;;;;;4993065;28;91075;-32
2022/12/31 05:59:55;;;;;;;8.45;3.80;;;10.90;99.90;;;;;;5012770;28;89054;-34
2022/12/31 06:02:21;;;;;;;7.05;3.95;;;10.90;99.90;;;;;;5011040;28;89272;-34
2022/12/31 06:04:47;;;;;;;4.40;4.00;;;10.90;99.90;;;;;;5012204;28;88766;-34
2022/12/31 06:07:12;;;;;;;5.55;5.05;;;11.00;99.90;;;;;;5011756;28;90655;-34
2022/12/31 06:09:38;;;;;;;5.47;4.18;;;11.00;99.90;;;;;;5010931;28;89684;-33
2022/12/31 06:12:04;;;;;;;5.03;4.50;;;11.00;99.90;;;;;;5011109;28;89745;-33
2022/12/31 06:14:30;;;;;;;3.92;3.63;;;11.00;99.90;;;;;;5011499;28;88128;-32
2022/12/31 06:16:56;;;;;;;4.90;3.65;;;11.00;99.90;;;;;;5005924;28;90244;-33
2022/12/31 06:19:21;;;;;;;4.30;3.03;;;11.00;99.90;;;;;;4999461;28;90160;-35
2022/12/31 06:21:47;;;;;;;4.18;3.50;;;11.10;99.90;;;;;;5009613;28;89413;-33
2022/12/31 06:24:12;;;;;;;7.45;3.97;;;11.10;99.90;;;;;;5015687;28;88495;-35
2022/12/31 06:26:38;;;;;;;5.40;3.63;;;11.10;99.90;;;;;;5014408;28;90214;-33
2022/12/31 06:29:04;;;;;;;3.58;3.28;;;11.10;99.90;;;;;;5013563;28;90261;-36
2022/12/31 06:31:29;;;;;;;4.00;3.63;;;11.20;99.90;;;;;;5013866;28;90348;-33
2022/12/31 06:33:55;;;;;;;3.50;3.20;;;11.10;99.90;;;;;;5015398;28;87986;-33
2022/12/31 06:36:21;;;;;;;3.47;2.88;;;11.10;99.90;;;;;;5014392;28;88699;-35
2022/12/31 06:38:47;;;;;;;3.53;3.22;;;11.10;99.90;;;;;;5016438;28;89017;-35
2022/12/31 06:41:14;;;;;;;3.92;3.20;;;11.10;99.90;;;;;;5015087;28;88838;-32
2022/12/31 06:43:41;;;;;;;3.33;3.03;;;11.10;99.90;;;;;;5015338;28;87857;-33
2022/12/31 06:46:09;;;;;;;5.95;3.60;;;11.10;99.90;;;;;;5015771;28;89742;-33
2022/12/31 06:48:35;;;;;;;8.32;3.25;;;11.10;99.90;;;;;;5014164;28;88746;-33
2022/12/31 06:51:10;;;;;;;4.30;2.95;;;11.00;99.90;;;;;;5015038;28;89453;-34
2022/12/31 06:53:35;;;;;;;3.70;3.15;;;11.00;99.90;;;;;;4997406;28;88848;-33
2022/12/31 06:56:16;;;;;;;3.13;2.85;;;11.00;99.90;;;;;;5007079;28;90296;-36
2022/12/31 06:58:43;;;;;;;4.38;2.70;;;11.00;99.90;;;;;;5001291;28;91316;-34
2022/12/31 07:01:11;;;;;;;4.28;2.58;;;10.90;99.90;;;;;;5002029;28;90273;-36
2022/12/31 07:03:52;;;;;;;2.67;2.47;;;10.90;99.90;;;;;;5001984;28;87882;-34
2022/12/31 07:06:38;;;;;;;2.92;2.65;;;10.90;99.90;;;;;;5011847;28;90279;-33
2022/12/31 07:09:16;;;;;;;3.15;2.85;;;10.90;99.90;;;;;;5014838;28;89479;-33
2022/12/31 07:11:59;;;;;;;2.92;2.60;;;10.90;99.90;;;;;;5015573;28;89979;-34
2022/12/31 07:14:46;;;;;;;2.97;2.78;;;11.00;99.90;;;;;;5015011;28;88704;-34
2022/12/31 07:17:21;;;;;;;3.20;2.90;;;11.00;99.90;;;;;;5014861;28;88937;-32
2022/12/31 07:20:12;;;;;;;3.75;3.22;;;10.90;99.90;;;;;;5014963;28;90733;-31
2022/12/31 07:22:38;;;;;;;3.20;2.90;;;11.00;99.90;;;;;;5013662;28;90844;-31
2022/12/31 07:25:05;;;;;;;4.13;3.03;;;11.00;99.90;;;;;;5012892;28;87707;-33
2022/12/31 07:27:57;;;;;;;2.85;2.63;;;10.90;99.90;;;;;;5013327;28;89698;-32
2022/12/31 07:30:51;;;;;;;3.78;3.47;;;10.90;99.90;;;;;;5014792;28;89863;-33
2022/12/31 07:33:29;;;;;;;3.55;3.25;;;10.90;99.90;;;;;;5015636;28;89568;-33
2022/12/31 07:36:19;;;;;;;2.97;2.77;;;10.90;99.90;;;;;;5015445;28;88909;-32
2022/12/31 07:39:06;;;;;;;2.83;2.63;;;10.90;99.90;;;;;;5012347;28;90560;-33
2022/12/31 07:41:32;;;;;;;3.08;2.70;;;10.90;99.90;;;;;;5024378;28;90715;-32
2022/12/31 07:44:19;;;;;;;4.68;2.70;;;11.00;99.90;;;;;;5029551;28;89327;-32
2022/12/31 07:46:55;;;;;;;2.58;2.38;;;11.00;99.90;;;;;;5026476;28;88057;-33
2022/12/31 07:49:22;;;;;;;3.20;2.90;;;11.00;99.90;;;;;;5011951;28;90109;-34
2022/12/31 07:51:48;;;;;;;3.83;3.10;;;11.00;99.90;;;;;;5027398;28;90531;-32
2022/12/31 07:54:14;;;;;;;2.13;1.92;;;11.00;99.90;;;;;;5029103;28;89858;-32
2022/12/31 07:56:40;;;;;;;2.80;2.60;;;11.10;99.90;;;;;;5024102;28;88316;-32
2022/12/31 07:59:32;;;;;;;2.42;2.22;;;11.00;99.90;;;;;;5024173;28;90795;-34
2022/12/31 08:02:01;;;;;;;2.58;2.38;;;11.10;99.90;;;;;;5025963;28;89981;-32
2022/12/31 08:04:55;;;;;;;2.65;2.35;;;11.10;99.90;;;;;;5030111;28;87655;-31
2022/12/31 08:07:43;;;;;;;3.42;2.47;;;11.10;99.90;;;;;;4978855;28;88145;-33
2022/12/31 08:10:16;;;;;;;;;;;11.10;99.90;;;;;;5028033;28;90436;-34
2022/12/31 08:12:44;;;;;;;2.72;2.53;;;11.10;99.90;;;;;;5024852;28;88969;-33
2022/12/31 08:15:14;;;;;;;2.97;2.70;;;11.20;99.90;;;;;;5029377;28;90475;-32
2022/12/31 08:17:41;;;;;;;3.50;2.63;;;11.20;99.90;;;;;;5024639;28;87682;-33
2022/12/31 08:20:10;;;;;;;3.13;2.83;;;11.10;99.90;;;;;;5028288;28;90401;-33
2022/12/31 08:22:58;;;;;;;2.25;2.05;;;11.20;99.90;;;;;;5024076;28;90053;-32
2022/12/31 08:25:33;;;;;;;3.08;2.38;;;11.20;99.90;;;;;;5012879;28;89441;-33
2022/12/31 08:28:25;;;;;;;3.30;3.00;;;11.20;99.90;;;;;;5014205;28;88628;-32
2022/12/31 08:31:13;;;;;;;3.78;2.83;;;11.30;99.90;;;;;;5003875;28;90160;-32
2022/12/31 08:33:54;;;;;;;3.78;3.13;;;11.20;99.90;;;;;;5012857;28;89039;-32
2022/12/31 08:36:30;;;;;;;4.15;3.58;;;11.30;99.90;;;;;;5012585;28;89653;-33
2022/12/31 08:39:05;;;;;;;3.95;3.60;;;11.30;99.90;;;;;;5012054;28;88104;-32
2022/12/31 08:41:39;;;;;;;3.70;3.15;;;11.40;99.90;;;;;;5011298;28;89905;-33
2022/12/31 08:44:30;;;;;;;2.63;2.42;;;11.40;99.90;;;;;;5010430;28;89297;-34
2022/12/31 08:47:01;;;;;;;3.22;3.00;;;11.50;99.90;;;;;;5010121;28;89238;-32
2022/12/31 08:49:30;;;;;;;4.07;3.35;;;11.50;99.90;;;;;;5004947;28;88667;-32
2022/12/31 08:51:57;;;;;;;3.75;2.90;;;11.60;99.90;;;;;;5007428;28;90706;-34
2022/12/31 08:54:23;;;;;;;6.13;2.97;;;11.70;99.90;;;;;;5003527;28;90175;-33
2022/12/31 08:57:04;;;;;;;3.20;2.90;;;11.70;99.90;;;;;;5007977;28;89129;-34
2022/12/31 08:59:44;;;;;;;3.50;3.20;;;11.80;99.90;;;;;;5008778;28;87721;-32
2022/12/31 09:02:10;;;;;;;3.67;3.13;;;11.90;99.90;;;;;;5004973;28;89267;-33
2022/12/31 09:04:44;;;;;;;2.50;2.30;;;11.90;99.90;;;;;;5005692;28;89210;-33
2022/12/31 09:07:12;;;;;;;3.90;3.60;;;12.00;99.90;;;;;;5001132;28;90349;-33
2022/12/31 09:09:57;;;;;;;3.13;2.63;;;12.00;99.90;;;;;;5006312;28;88167;-32
2022/12/31 09:12:49;;;;;;;3.17;2.88;;;12.10;99.90;;;;;;4999893;28;90220;-34
2022/12/31 09:15:25;;;;;;;3.50;3.20;;;12.10;99.90;;;;;;4962378;28;91008;-33
2022/12/31 09:17:51;;;;;;;3.38;2.75;;;12.20;99.90;;;;;;4986667;28;89373;-33
2022/12/31 09:20:21;;;;;;;3.80;2.38;;;12.30;99.90;;;;;;4998871;28;90518;-32
2022/12/31 09:22:47;;;;;;;2.00;1.90;;;12.30;99.90;;;;;;4985456;28;88839;-33
2022/12/31 09:25:15;;;;;;;2.35;2.15;;;12.40;99.90;;;;;;4996759;28;89208;-34
2022/12/31 09:27:50;;;;;;;2.97;2.20;;;12.40;99.90;;;;;;4997132;28;89743;-33
2022/12/31 09:30:17;;;;;;;2.83;1.98;;;12.40;99.90;;;;;;4996993;28;89731;-32
2022/12/31 09:33:00;;;;;;;1.98;1.88;;;12.50;99.90;;;;;;4987743;28;91162;-32
2022/12/31 09:35:35;;;;;;;2.45;1.80;;;12.60;99.90;;;;;;5001792;22;1141746;-33
2022/12/31 09:38:16;;;;;;;2.40;2.20;;;12.60;99.90;;;;;;5017075;28;91011;-34
2022/12/31 09:41:12;;;;;;;3.75;2.00;;;12.70;99.90;;;;;;5014342;28;88687;-32
2022/12/31 09:43:59;;;;;;;3.42;1.70;;;12.80;99.90;;;;;;5017524;28;90244;-33
2022/12/31 09:47:02;;;;;;;3.50;2.35;;;12.80;99.90;;;;;;5003852;28;89378;-34
2022/12/31 09:50:02;;;;;;;1.60;1.50;;;12.80;99.90;;;;;;5016179;28;89323;-33
2022/12/31 09:52:52;;;;;;;1.33;1.23;;;12.90;99.90;;;;;;5016682;28;88492;-33
2022/12/31 09:55:38;;;;;;;1.63;1.52;;;12.90;99.90;;;;;;5016939;27;90684;-34
2022/12/31 09:58:33;;;;;;;1.80;1.10;;;12.90;99.90;;;;;;5016382;28;90342;-33
2022/12/31 10:01:34;;;;;;;1.58;1.20;;;12.90;99.90;;;;;;5017498;28;90281;-33
2022/12/31 10:04:29;;;;;;;2.08;1.23;;;12.90;99.90;;;;;;5016291;28;89399;-32
2022/12/31 10:07:10;;;;;;;1.05;1.00;;;13.00;99.90;;;;;;5005373;28;90584;-33
2022/12/31 10:09:54;;;;;;;2.33;1.40;;;13.10;99.90;;;;;;4983839;28;89638;-34
2022/12/31 10:12:37;;;;;;;1.83;0.88;;;13.10;99.90;;;;;;5008006;28;89115;-34
2022/12/31 10:15:05;;;;;;;1.85;1.00;;;13.10;99.90;;;;;;5014232;28;89786;-32
2022/12/31 10:17:36;;;;;;;1.20;1.10;;;13.20;99.90;;;;;;5016600;28;90528;-35
2022/12/31 10:20:18;;;;;;;2.95;2.03;;;13.20;99.90;;;;;;5016830;28;89452;-35
2022/12/31 10:23:02;;;;;;;1.27;1.20;;;13.20;99.90;;;;;;5008180;28;91139;-33
2022/12/31 10:25:39;;;;;;;1.55;0.80;;;13.30;99.90;;;;;;5015284;28;89695;-34
2022/12/31 10:28:28;;;;;;;1.42;1.30;;;13.40;99.90;;;;;;5016257;28;90462;-35
2022/12/31 10:31:20;;;;;;;1.88;1.23;;;13.40;99.90;;;;;;5003481;28;89747;-33
2022/12/31 10:33:48;;;;;;;1.90;1.60;;;13.40;99.90;;;;;;5015410;28;90230;-32
2022/12/31 10:36:19;;;;;;;;;;;13.50;99.90;;;;;;5014754;28;89288;-33
2022/12/31 10:39:26;;;;;;;3.83;1.98;;;13.50;99.90;;;;;;5008277;28;89990;-34
2022/12/31 10:42:18;;;;;;;2.90;2.03;;;13.60;99.90;;;;;;4913681;28;90546;-32
2022/12/31 10:45:09;;;;;;;1.58;1.35;;;13.60;99.90;;;;;;5016313;28;89671;-33
2022/12/31 10:48:05;;;;;;;5.07;2.28;;;13.60;99.90;;;;;;5010469;28;89645;-34
2022/12/31 10:50:59;;;;;;;1.77;1.58;;;13.70;99.90;;;;;;5015513;28;90343;-33
2022/12/31 10:53:51;;;;;;;2.45;1.60;;;13.60;99.90;;;;;;5009219;27;90977;-33
2022/12/31 10:56:48;;;;;;;1.90;1.73;;;13.70;99.90;;;;;;4964023;28;90569;-33
2022/12/31 10:59:44;;;;;;;3.40;2.30;;;13.70;99.90;;;;;;5008543;28;89928;-33
2022/12/31 11:02:38;;;;;;;4.45;2.75;;;13.70;99.90;;;;;;5012237;28;90154;-33
2022/12/31 11:05:34;;;;;;;2.50;2.30;;;13.80;99.90;;;;;;5014989;28;89954;-35
2022/12/31 11:08:39;;;;;;;8.27;3.13;;;13.70;99.90;;;;;;5019320;28;89041;-33
2022/12/31 11:11:44;;;;;;;3.42;2.58;;;13.70;99.90;;;;;;5011159;28;89414;-33
2022/12/31 11:14:42;;;;;;;9.05;3.83;;;13.60;99.90;;;;;;5008484;28;89793;-34
2022/12/31 11:17:37;;;;;;;3.03;2.13;;;13.60;99.90;;;;;;5019011;28;89803;-32
2022/12/31 11:20:37;;;;;;;2.58;2.00;;;13.50;99.90;;;;;;5013235;27;89323;-33
2022/12/31 11:23:26;;;;;;;3.85;2.30;;;13.50;99.90;;;;;;5000555;28;89292;-34
2022/12/31 11:26:12;;;;;;;7.05;2.17;;;13.50;99.90;;;;;;4970335;28;90471;-33
2022/12/31 11:28:52;;;;;;;10.57;3.40;;;13.40;99.90;;;;;;5006061;28;89904;-32
2022/12/31 11:31:37;;;;;;;3.58;2.58;;;13.40;99.90;;;;;;5018485;28;89474;-34
2022/12/31 11:34:26;;;;;;;3.47;2.60;;;13.40;99.90;;;;;;5019156;28;89066;-34
2022/12/31 11:37:09;;;;;;;3.65;3.10;;;13.40;99.90;;;;;;5017865;28;90264;-35
2022/12/31 11:39:51;;;;;;;4.53;3.28;;;13.40;99.90;;;;;;5017859;28;89483;-33
2022/12/31 11:42:37;;;;;;;4.95;3.20;;;13.40;99.90;;;;;;5019254;28;89909;-33
2022/12/31 11:45:40;;;;;;;4.72;3.05;;;13.50;99.90;;;;;;5019397;28;88354;-33
2022/12/31 11:48:42;;;;;;;3.55;2.80;;;13.50;99.90;;;;;;5018068;28;89598;-33
2022/12/31 11:51:35;;;;;;;3.45;2.15;;;13.60;99.90;;;;;;5017940;28;89872;-34
2022/12/31 11:54:13;;;;;;;5.80;3.20;;;13.70;99.90;;;;;;4999764;28;92034;-34
2022/12/31 11:56:49;;;;;;;2.90;2.50;;;13.70;99.90;;;;;;5017575;27;88374;-33
2022/12/31 11:59:14;;;;;;;2.67;2.05;;;13.70;99.90;;;;;;5003119;28;90259;-32
2022/12/31 12:02:18;;;;;;;4.00;2.58;;;13.80;99.90;;;;;;5000336;28;89517;-32
2022/12/31 12:04:48;;;;;;;2.97;2.03;;;13.70;99.90;;;;;;5003999;28;89413;-36
2022/12/31 12:07:15;;;;;;;3.53;3.22;;;13.70;99.90;;;;;;5018403;28;89427;-36
2022/12/31 12:09:43;;;;;;;8.15;3.67;;;13.80;99.90;;;;;;5018243;28;90385;-34
2022/12/31 12:12:09;;;;;;;3.30;3.00;;;13.80;99.90;;;;;;5018654;28;89351;-34
2022/12/31 12:14:37;;;;;;;3.88;3.45;;;13.80;99.90;;;;;;5017649;28;89368;-35
2022/12/31 12:17:13;;;;;;;5.03;3.38;;;13.90;99.90;;;;;;5018358;27;90293;-33
2022/12/31 12:19:45;;;;;;;5.72;3.08;;;13.90;99.90;;;;;;5017445;28;89799;-34
2022/12/31 12:22:18;;;;;;;3.17;2.88;;;14.00;99.90;;;;;;5019761;28;89993;-33
2022/12/31 12:25:02;;;;;;;2.67;2.47;;;14.00;99.90;;;;;;5020248;28;89449;-35
2022/12/31 12:27:31;;;;;;;3.83;3.53;;;14.10;99.90;;;;;;5023689;28;88910;-33
2022/12/31 12:29:56;;;;;;;4.43;2.92;;;14.10;99.90;;;;;;5025592;28;90553;-34
2022/12/31 12:32:25;;;;;;;4.22;3.30;;;14.20;99.90;;;;;;5009134;28;89305;-33
2022/12/31 12:34:51;;;;;;;4.90;2.70;;;14.20;99.90;;;;;;5004547;28;89196;-33
2022/12/31 12:37:23;;;;;;;3.15;2.90;;;14.30;99.90;;;;;;5020849;27;87474;-34
2022/12/31 12:40:16;;;;;;;3.97;3.58;;;14.30;99.90;;;;;;5020212;28;90165;-35
2022/12/31 12:42:47;;;;;;;2.95;2.67;;;14.30;99.90;;;;;;5018141;27;89976;-35
2022/12/31 12:45:20;;;;;;;2.35;2.17;;;14.30;99.90;;;;;;5018859;27;90333;-35
2022/12/31 12:47:56;;;;;;;3.33;2.53;;;14.30;99.90;;;;;;5018615;27;90008;-34
2022/12/31 12:50:25;;;;;;;2.67;2.47;;;14.30;99.90;;;;;;5018269;27;89683;-32
2022/12/31 12:53:01;;;;;;;3.08;2.38;;;14.30;99.90;;;;;;5017843;27;89240;-33
2022/12/31 12:55:53;;;;;;;2.95;2.60;;;14.20;99.90;;;;;;5017351;28;88747;-33
2022/12/31 12:58:57;;;;;;;3.88;2.53;;;14.20;99.90;;;;;;5018278;27;88749;-35
2022/12/31 13:01:58;;;;;;;2.83;2.63;;;14.20;99.90;;;;;;5019028;28;90223;-37
2022/12/31 13:04:42;;;;;;;3.13;2.72;;;14.20;99.90;;;;;;5016430;28;89628;-35
2022/12/31 13:07:30;;;;;;;3.20;3.00;;;14.10;99.90;;;;;;5017599;28;88553;-32
2022/12/31 13:10:14;;;;;;;3.65;3.15;;;14.10;99.90;;;;;;5017640;28;90335;-33
2022/12/31 13:12:45;;;;;;;5.05;3.78;;;14.10;99.90;;;;;;5017266;28;89830;-33
2022/12/31 13:15:28;;;;;;;4.53;3.97;;;14.10;99.90;;;;;;5016246;28;89693;-34
2022/12/31 13:18:00;;;;;;;6.82;4.20;;;14.00;99.90;;;;;;5013385;28;90064;-34
2022/12/31 13:20:40;;;;;;;4.40;4.00;;;14.00;99.90;;;;;;5017052;28;89733;-33
2022/12/31 13:23:06;;;;;;;6.95;4.07;;;14.00;99.90;;;;;;5014441;28;88889;-33
2022/12/31 13:25:43;;;;;;;5.30;3.70;;;13.90;99.90;;;;;;5016069;28;89253;-32
2022/12/31 13:28:12;;;;;;;4.87;3.50;;;13.80;99.90;;;;;;5013975;28;89531;-34
2022/12/31 13:30:58;;;;;;;5.40;3.35;;;13.80;99.90;;;;;;5016240;28;89012;-33